sensor_id;sensor_type;location;lat;lon;timestamp;temperature;humidity
46976;DHT22;32724;51.094;6.996;2022-12-10T00:01:45;-1.40;99.90
46976;DHT22;32724;51.094;6.996;2022-12-10T00:04:11;-1.60;99.90
46976;DHT22;32724;51.094;6.996;2022-12-10T00:06:37;-1.80;99.90
46976;DHT22;32724;51.094;6.996;2022-12-10T00:09:04;-1.90;99.90
46976;DHT22;32724;51.094;6.996;2022-12-10T00:11:30;-2.00;99.90
46976;DHT22;32724;51.094;6.996;2022-12-10T00:13:56;-2.10;99.90
46976;DHT22;32724;51.094;6.996;2022-12-10T00:16:23;-2.20;99.90
46976;DHT22;32724;51.094;6.996;2022-12-10T00:18:49;-2.20;99.90
46976;DHT22;32724;51.094;6.996;2022-12-10T00:21:16;-2.20;99.90
46976;DHT22;32724;51.094;6.996;2022-12-10T00:23:43;-1.60;99.90
46976;DHT22;32724;51.094;6.996;2022-12-10T00:26:09;-1.40;99.90
46976;DHT22;32724;51.094;6.996;2022-12-10T00:28:35;-1.60;99.90
46976;DHT22;32724;51.094;6.996;2022-12-10T00:31:02;-1.70;99.90
46976;DHT22;32724;51.094;6.996;2022-12-10T00:33:27;-1.80;99.90
46976;DHT22;32724;51.094;6.996;2022-12-10T00:35:53;-1.80;99.90
46976;DHT22;32724;51.094;6.996;2022-12-10T00:38:18;-1.80;99.90
46976;DHT22;32724;51.094;6.996;2022-12-10T00:40:44;-1.90;99.90
46976;DHT22;32724;51.094;6.996;2022-12-10T00:43:09;-1.90;99.90
46976;DHT22;32724;51.094;6.996;2022-12-10T00:45:35;-1.90;99.90
46976;DHT22;32724;51.094;6.996;2022-12-10T00:48:00;-1.90;99.90
46976;DHT22;32724;51.094;6.996;2022-12-10T00:50:25;-2.00;99.90
46976;DHT22;32724;51.094;6.996;2022-12-10T00:52:51;-2.10;99.90
46976;DHT22;32724;51.094;6.996;2022-12-10T00:55:16;-2.10;99.90
46976;DHT22;32724;51.094;6.996;2022-12-10T00:57:42;-2.10;99.90
46976;DHT22;32724;51.094;6.996;2022-12-10T01:00:07;-2.10;99.90
46976;DHT22;32724;51.094;6.996;2022-12-10T01:02:33;-2.20;99.90
46976;DHT22;32724;51.094;6.996;2022-12-10T01:04:59;-2.10;99.90
46976;DHT22;32724;51.094;6.996;2022-12-10T01:07:24;-2.10;99.90
46976;DHT22;32724;51.094;6.996;2022-12-10T01:09:49;-2.10;99.90
46976;DHT22;32724;51.094;6.996;2022-12-10T01:12:15;-2.20;99.90
46976;DHT22;32724;51.094;6.996;2022-12-10T01:14:40;-2.30;99.90
46976;DHT22;32724;51.094;6.996;2022-12-10T01:17:06;-2.40;99.90
46976;DHT22;32724;51.094;6.996;2022-12-10T01:19:32;-2.40;99.90
46976;DHT22;32724;51.094;6.996;2022-12-10T01:21:58;-2.50;99.90
46976;DHT22;32724;51.094;6.996;2022-12-10T01:24:24;-2.60;99.90
46976;DHT22;32724;51.094;6.996;2022-12-10T01:26:50;-2.60;99.90
46976;DHT22;32724;51.094;6.996;2022-12-10T01:29:16;-2.70;99.90
46976;DHT22;32724;51.094;6.996;2022-12-10T01:31:41;-2.80;99.90
46976;DHT22;32724;51.094;6.996;2022-12-10T01:34:09;-2.90;99.90
46976;DHT22;32724;51.094;6.996;2022-12-10T01:36:36;-3.00;99.90
46976;DHT22;32724;51.094;6.996;2022-12-10T01:39:03;-3.00;99.90
46976;DHT22;32724;51.094;6.996;2022-12-10T01:41:30;-3.10;99.90
46976;DHT22;32724;51.094;6.996;2022-12-10T01:46:35;-3.10;99.90
46976;DHT22;32724;51.094;6.996;2022-12-10T01:49:01;-3.10;99.90
46976;DHT22;32724;51.094;6.996;2022-12-10T01:51:28;-3.20;99.90
46976;DHT22;32724;51.094;6.996;2022-12-10T01:53:54;-3.20;99.90
46976;DHT22;32724;51.094;6.996;2022-12-10T01:56:20;-3.30;99.90
46976;DHT22;32724;51.094;6.996;2022-12-10T01:58:46;-3.40;99.90
46976;DHT22;32724;51.094;6.996;2022-12-10T02:01:25;-3.40;99.90
46976;DHT22;32724;51.094;6.996;2022-12-10T02:04:16;-3.40;99.90
46976;DHT22;32724;51.094;6.996;2022-12-10T02:09:43;-3.50;99.90
46976;DHT22;32724;51.094;6.996;2022-12-10T02:12:20;-3.50;99.90
46976;DHT22;32724;51.094;6.996;2022-12-10T02:15:04;-3.60;99.90
46976;DHT22;32724;51.094;6.996;2022-12-10T02:19:59;-3.10;99.90
46976;DHT22;32724;51.094;6.996;2022-12-10T02:22:26;-3.10;99.90
46976;DHT22;32724;51.094;6.996;2022-12-10T02:24:53;-3.10;99.90
46976;DHT22;32724;51.094;6.996;2022-12-10T02:27:22;-3.20;99.90
46976;DHT22;32724;51.094;6.996;2022-12-10T02:29:50;-3.30;99.90
46976;DHT22;32724;51.094;6.996;2022-12-10T02:32:18;-3.30;99.90
46976;DHT22;32724;51.094;6.996;2022-12-10T02:34:50;-3.30;99.90
46976;DHT22;32724;51.094;6.996;2022-12-10T02:37:35;-3.40;99.90
46976;DHT22;32724;51.094;6.996;2022-12-10T02:40:04;-3.50;99.90
46976;DHT22;32724;51.094;6.996;2022-12-10T02:42:31;-3.50;99.90
46976;DHT22;32724;51.094;6.996;2022-12-10T02:44:58;-3.50;99.90
46976;DHT22;32724;51.094;6.996;2022-12-10T02:47:25;-3.60;99.90
46976;DHT22;32724;51.094;6.996;2022-12-10T02:49:51;-3.60;99.90
46976;DHT22;32724;51.094;6.996;2022-12-10T02:52:18;-3.60;99.90
46976;DHT22;32724;51.094;6.996;2022-12-10T02:54:45;-3.70;99.90
46976;DHT22;32724;51.094;6.996;2022-12-10T02:57:15;-3.70;99.90
46976;DHT22;32724;51.094;6.996;2022-12-10T03:02:17;-3.20;99.90
46976;DHT22;32724;51.094;6.996;2022-12-10T03:04:46;-3.10;99.90
46976;DHT22;32724;51.094;6.996;2022-12-10T03:07:16;-3.20;99.90
46976;DHT22;32724;51.094;6.996;2022-12-10T03:09:45;-3.40;99.90
46976;DHT22;32724;51.094;6.996;2022-12-10T03:12:17;-3.40;99.90
46976;DHT22;32724;51.094;6.996;2022-12-10T03:14:45;-3.50;99.90
46976;DHT22;32724;51.094;6.996;2022-12-10T03:17:11;-3.60;99.90
46976;DHT22;32724;51.094;6.996;2022-12-10T03:19:38;-3.50;99.90
46976;DHT22;32724;51.094;6.996;2022-12-10T03:22:05;-3.50;99.90
46976;DHT22;32724;51.094;6.996;2022-12-10T03:24:32;-3.50;99.90
46976;DHT22;32724;51.094;6.996;2022-12-10T03:27:00;-3.50;99.90
46976;DHT22;32724;51.094;6.996;2022-12-10T03:29:37;-3.50;99.90
46976;DHT22;32724;51.094;6.996;2022-12-10T03:32:04;-3.50;99.90
46976;DHT22;32724;51.094;6.996;2022-12-10T03:34:30;-3.40;99.90
46976;DHT22;32724;51.094;6.996;2022-12-10T03:36:57;-3.30;99.90
46976;DHT22;32724;51.094;6.996;2022-12-10T03:39:23;-3.30;99.90
46976;DHT22;32724;51.094;6.996;2022-12-10T03:41:49;-3.20;99.90
46976;DHT22;32724;51.094;6.996;2022-12-10T03:44:19;-3.20;99.90
46976;DHT22;32724;51.094;6.996;2022-12-10T03:46:51;-2.40;99.90
46976;DHT22;32724;51.094;6.996;2022-12-10T03:49:17;-2.60;99.90
46976;DHT22;32724;51.094;6.996;2022-12-10T03:51:42;-2.50;99.90
46976;DHT22;32724;51.094;6.996;2022-12-10T03:54:08;-2.50;99.90
46976;DHT22;32724;51.094;6.996;2022-12-10T03:56:33;-2.50;99.90
46976;DHT22;32724;51.094;6.996;2022-12-10T03:58:58;-2.50;99.90
46976;DHT22;32724;51.094;6.996;2022-12-10T04:01:24;-2.50;99.90
46976;DHT22;32724;51.094;6.996;2022-12-10T04:03:49;-2.50;99.90
46976;DHT22;32724;51.094;6.996;2022-12-10T04:06:18;-2.50;99.90
46976;DHT22;32724;51.094;6.996;2022-12-10T04:08:44;-2.50;99.90
46976;DHT22;32724;51.094;6.996;2022-12-10T04:11:10;-2.50;99.90
46976;DHT22;32724;51.094;6.996;2022-12-10T04:13:37;-2.40;99.90
46976;DHT22;32724;51.094;6.996;2022-12-10T04:16:21;-2.30;99.90
46976;DHT22;32724;51.094;6.996;2022-12-10T04:18:57;-2.20;99.90
46976;DHT22;32724;51.094;6.996;2022-12-10T04:21:22;-2.20;99.90
46976;DHT22;32724;51.094;6.996;2022-12-10T04:24:08;-2.20;99.90
46976;DHT22;32724;51.094;6.996;2022-12-10T04:26:52;-2.20;99.90
46976;DHT22;32724;51.094;6.996;2022-12-10T04:29:24;-2.10;99.90
46976;DHT22;32724;51.094;6.996;2022-12-10T04:31:50;-2.00;99.90
46976;DHT22;32724;51.094;6.996;2022-12-10T04:34:16;-2.10;99.90
46976;DHT22;32724;51.094;6.996;2022-12-10T04:36:41;-2.10;99.90
46976;DHT22;32724;51.094;6.996;2022-12-10T04:39:07;-2.00;99.90
46976;DHT22;32724;51.094;6.996;2022-12-10T04:41:33;-1.40;99.90
46976;DHT22;32724;51.094;6.996;2022-12-10T04:43:58;-1.60;99.90
46976;DHT22;32724;51.094;6.996;2022-12-10T04:46:24;-1.80;99.90
46976;DHT22;32724;51.094;6.996;2022-12-10T04:48:49;-1.80;99.90
46976;DHT22;32724;51.094;6.996;2022-12-10T04:51:15;-1.90;99.90
46976;DHT22;32724;51.094;6.996;2022-12-10T04:53:40;-2.00;99.90
46976;DHT22;32724;51.094;6.996;2022-12-10T04:56:06;-2.00;99.90
46976;DHT22;32724;51.094;6.996;2022-12-10T04:58:32;-2.00;99.90
46976;DHT22;32724;51.094;6.996;2022-12-10T05:01:03;-2.00;99.90
46976;DHT22;32724;51.094;6.996;2022-12-10T05:03:29;-1.90;99.90
46976;DHT22;32724;51.094;6.996;2022-12-10T05:05:55;-2.00;99.90
46976;DHT22;32724;51.094;6.996;2022-12-10T05:08:21;-2.00;99.90
46976;DHT22;32724;51.094;6.996;2022-12-10T05:10:46;-2.00;99.90
46976;DHT22;32724;51.094;6.996;2022-12-10T05:13:12;-1.90;99.90
46976;DHT22;32724;51.094;6.996;2022-12-10T05:15:38;-1.80;99.90
46976;DHT22;32724;51.094;6.996;2022-12-10T05:18:03;-1.80;99.90
46976;DHT22;32724;51.094;6.996;2022-12-10T05:20:28;-1.80;99.90
46976;DHT22;32724;51.094;6.996;2022-12-10T05:22:54;-1.80;99.90
46976;DHT22;32724;51.094;6.996;2022-12-10T05:25:38;-1.90;99.90
46976;DHT22;32724;51.094;6.996;2022-12-10T05:28:24;-1.80;99.90
46976;DHT22;32724;51.094;6.996;2022-12-10T05:30:49;-1.80;99.90
46976;DHT22;32724;51.094;6.996;2022-12-10T05:33:15;-1.20;99.90
46976;DHT22;32724;51.094;6.996;2022-12-10T05:35:40;-1.50;99.90
46976;DHT22;32724;51.094;6.996;2022-12-10T05:38:05;-1.60;99.90
46976;DHT22;32724;51.094;6.996;2022-12-10T05:40:35;-1.70;99.90
46976;DHT22;32724;51.094;6.996;2022-12-10T05:43:00;-1.70;99.90
46976;DHT22;32724;51.094;6.996;2022-12-10T05:45:26;-1.70;99.90
46976;DHT22;32724;51.094;6.996;2022-12-10T05:47:52;-1.70;99.90
46976;DHT22;32724;51.094;6.996;2022-12-10T05:50:17;-1.70;99.90
46976;DHT22;32724;51.094;6.996;2022-12-10T05:52:42;-1.70;99.90
46976;DHT22;32724;51.094;6.996;2022-12-10T05:55:08;-1.70;99.90
46976;DHT22;32724;51.094;6.996;2022-12-10T05:57:35;-1.70;99.90
46976;DHT22;32724;51.094;6.996;2022-12-10T06:00:01;-1.80;99.90
46976;DHT22;32724;51.094;6.996;2022-12-10T06:02:26;-1.90;99.90
46976;DHT22;32724;51.094;6.996;2022-12-10T06:04:52;-1.90;99.90
46976;DHT22;32724;51.094;6.996;2022-12-10T06:07:17;-1.80;99.90
46976;DHT22;32724;51.094;6.996;2022-12-10T06:09:43;-1.70;99.90
46976;DHT22;32724;51.094;6.996;2022-12-10T06:12:08;-1.70;99.90
46976;DHT22;32724;51.094;6.996;2022-12-10T06:14:34;-1.70;99.90
46976;DHT22;32724;51.094;6.996;2022-12-10T06:16:59;-1.70;99.90
46976;DHT22;32724;51.094;6.996;2022-12-10T06:19:25;-1.70;99.90
46976;DHT22;32724;51.094;6.996;2022-12-10T06:21:50;-1.70;99.90
46976;DHT22;32724;51.094;6.996;2022-12-10T06:24:16;-1.70;99.90
46976;DHT22;32724;51.094;6.996;2022-12-10T06:26:41;-1.70;99.90
46976;DHT22;32724;51.094;6.996;2022-12-10T06:29:06;-1.70;99.90
46976;DHT22;32724;51.094;6.996;2022-12-10T06:31:32;-1.70;99.90
46976;DHT22;32724;51.094;6.996;2022-12-10T06:33:57;-1.70;99.90
46976;DHT22;32724;51.094;6.996;2022-12-10T06:36:23;-1.60;99.90
46976;DHT22;32724;51.094;6.996;2022-12-10T06:38:48;-1.60;99.90
46976;DHT22;32724;51.094;6.996;2022-12-10T06:41:15;-1.60;99.90
46976;DHT22;32724;51.094;6.996;2022-12-10T06:43:41;-1.50;99.90
46976;DHT22;32724;51.094;6.996;2022-12-10T06:46:14;-1.50;99.90
46976;DHT22;32724;51.094;6.996;2022-12-10T06:48:40;-0.90;99.90
46976;DHT22;32724;51.094;6.996;2022-12-10T06:51:06;-1.10;99.90
46976;DHT22;32724;51.094;6.996;2022-12-10T06:53:32;-1.30;99.90
46976;DHT22;32724;51.094;6.996;2022-12-10T06:55:58;-1.40;99.90
46976;DHT22;32724;51.094;6.996;2022-12-10T06:58:26;-1.50;99.90
46976;DHT22;32724;51.094;6.996;2022-12-10T07:00:51;-1.60;99.90
46976;DHT22;32724;51.094;6.996;2022-12-10T07:03:17;-1.60;99.90
46976;DHT22;32724;51.094;6.996;2022-12-10T07:05:43;-1.60;99.90
46976;DHT22;32724;51.094;6.996;2022-12-10T07:08:08;-1.60;99.90
46976;DHT22;32724;51.094;6.996;2022-12-10T07:10:33;-1.60;99.90
46976;DHT22;32724;51.094;6.996;2022-12-10T07:12:59;-1.70;99.90
46976;DHT22;32724;51.094;6.996;2022-12-10T07:15:25;-1.70;99.90
46976;DHT22;32724;51.094;6.996;2022-12-10T07:17:52;-1.70;99.90
46976;DHT22;32724;51.094;6.996;2022-12-10T07:20:17;-1.80;99.90
46976;DHT22;32724;51.094;6.996;2022-12-10T07:22:43;-1.80;99.90
46976;DHT22;32724;51.094;6.996;2022-12-10T07:25:09;-1.70;99.90
46976;DHT22;32724;51.094;6.996;2022-12-10T07:27:34;-1.70;99.90
46976;DHT22;32724;51.094;6.996;2022-12-10T07:30:00;-1.50;99.90
46976;DHT22;32724;51.094;6.996;2022-12-10T07:32:28;-1.10;99.90
46976;DHT22;32724;51.094;6.996;2022-12-10T07:34:54;-1.50;99.90
46976;DHT22;32724;51.094;6.996;2022-12-10T07:37:19;-1.80;99.90
46976;DHT22;32724;51.094;6.996;2022-12-10T07:39:45;-2.10;99.90
46976;DHT22;32724;51.094;6.996;2022-12-10T07:42:11;-2.20;99.90
46976;DHT22;32724;51.094;6.996;2022-12-10T07:44:36;-2.30;99.90
46976;DHT22;32724;51.094;6.996;2022-12-10T07:47:02;-2.40;99.90
46976;DHT22;32724;51.094;6.996;2022-12-10T07:49:28;-2.30;99.90
46976;DHT22;32724;51.094;6.996;2022-12-10T07:51:54;-2.20;99.90
46976;DHT22;32724;51.094;6.996;2022-12-10T07:54:19;-2.10;99.90
46976;DHT22;32724;51.094;6.996;2022-12-10T07:56:45;-2.00;99.90
46976;DHT22;32724;51.094;6.996;2022-12-10T07:59:10;-1.90;99.90
46976;DHT22;32724;51.094;6.996;2022-12-10T08:01:36;-1.70;99.90
46976;DHT22;32724;51.094;6.996;2022-12-10T08:04:01;-1.70;99.90
46976;DHT22;32724;51.094;6.996;2022-12-10T08:06:28;-1.60;99.90
46976;DHT22;32724;51.094;6.996;2022-12-10T08:08:54;-1.50;99.90
46976;DHT22;32724;51.094;6.996;2022-12-10T08:11:20;-1.40;99.90
46976;DHT22;32724;51.094;6.996;2022-12-10T08:13:46;-1.30;99.90
46976;DHT22;32724;51.094;6.996;2022-12-10T08:16:12;-1.10;99.90
46976;DHT22;32724;51.094;6.996;2022-12-10T08:18:38;-0.60;99.90
46976;DHT22;32724;51.094;6.996;2022-12-10T08:21:08;-0.80;99.90
46976;DHT22;32724;51.094;6.996;2022-12-10T08:23:33;-0.90;99.90
46976;DHT22;32724;51.094;6.996;2022-12-10T08:26:02;-0.90;99.90
46976;DHT22;32724;51.094;6.996;2022-12-10T08:28:28;-0.90;99.90
46976;DHT22;32724;51.094;6.996;2022-12-10T08:30:53;-0.90;99.90
46976;DHT22;32724;51.094;6.996;2022-12-10T08:33:18;-0.90;99.90
46976;DHT22;32724;51.094;6.996;2022-12-10T08:35:44;-0.90;99.90
46976;DHT22;32724;51.094;6.996;2022-12-10T08:38:09;-1.00;99.90
46976;DHT22;32724;51.094;6.996;2022-12-10T08:40:38;-1.00;99.90
46976;DHT22;32724;51.094;6.996;2022-12-10T08:43:03;-1.10;99.90
46976;DHT22;32724;51.094;6.996;2022-12-10T08:45:29;-1.10;99.90
46976;DHT22;32724;51.094;6.996;2022-12-10T08:47:54;-1.10;99.90
46976;DHT22;32724;51.094;6.996;2022-12-10T08:50:20;-1.10;99.90
46976;DHT22;32724;51.094;6.996;2022-12-10T08:52:45;-0.90;99.90
46976;DHT22;32724;51.094;6.996;2022-12-10T08:55:11;-0.80;99.90
46976;DHT22;32724;51.094;6.996;2022-12-10T08:57:36;-0.70;99.90
46976;DHT22;32724;51.094;6.996;2022-12-10T09:00:02;-0.70;99.90
46976;DHT22;32724;51.094;6.996;2022-12-10T09:02:28;-0.60;99.90
46976;DHT22;32724;51.094;6.996;2022-12-10T09:04:54;-0.40;99.90
46976;DHT22;32724;51.094;6.996;2022-12-10T09:07:19;-0.40;99.90
46976;DHT22;32724;51.094;6.996;2022-12-10T09:09:44;-0.40;99.90
46976;DHT22;32724;51.094;6.996;2022-12-10T09:12:10;-0.40;99.90
46976;DHT22;32724;51.094;6.996;2022-12-10T09:14:35;-0.30;99.90
46976;DHT22;32724;51.094;6.996;2022-12-10T09:17:03;-0.10;99.90
46976;DHT22;32724;51.094;6.996;2022-12-10T09:19:29;-0.10;99.90
46976;DHT22;32724;51.094;6.996;2022-12-10T09:21:54;0.00;99.90
46976;DHT22;32724;51.094;6.996;2022-12-10T09:24:20;0.00;99.90
46976;DHT22;32724;51.094;6.996;2022-12-10T09:26:45;0.10;99.90
46976;DHT22;32724;51.094;6.996;2022-12-10T09:29:12;0.30;99.90
46976;DHT22;32724;51.094;6.996;2022-12-10T09:31:38;0.10;99.90
46976;DHT22;32724;51.094;6.996;2022-12-10T09:34:03;-0.10;99.90
46976;DHT22;32724;51.094;6.996;2022-12-10T09:36:29;-0.30;99.90
46976;DHT22;32724;51.094;6.996;2022-12-10T09:38:54;-0.20;99.90
46976;DHT22;32724;51.094;6.996;2022-12-10T09:44:00;-0.40;99.90
46976;DHT22;32724;51.094;6.996;2022-12-10T09:46:41;-0.40;99.90
46976;DHT22;32724;51.094;6.996;2022-12-10T09:49:21;-0.40;99.90
46976;DHT22;32724;51.094;6.996;2022-12-10T09:51:49;-0.40;99.90
46976;DHT22;32724;51.094;6.996;2022-12-10T09:54:19;-0.30;99.90
46976;DHT22;32724;51.094;6.996;2022-12-10T09:56:47;-0.30;99.90
46976;DHT22;32724;51.094;6.996;2022-12-10T09:59:15;-0.30;99.90
46976;DHT22;32724;51.094;6.996;2022-12-10T10:01:42;-0.30;99.90
46976;DHT22;32724;51.094;6.996;2022-12-10T10:04:08;-0.10;99.90
46976;DHT22;32724;51.094;6.996;2022-12-10T10:06:34;0.20;99.90
46976;DHT22;32724;51.094;6.996;2022-12-10T10:09:00;0.30;99.90
46976;DHT22;32724;51.094;6.996;2022-12-10T10:11:29;0.40;99.90
46976;DHT22;32724;51.094;6.996;2022-12-10T10:13:58;0.50;99.90
46976;DHT22;32724;51.094;6.996;2022-12-10T10:16:24;0.50;99.90
46976;DHT22;32724;51.094;6.996;2022-12-10T10:19:01;0.50;99.90
46976;DHT22;32724;51.094;6.996;2022-12-10T10:21:40;0.50;99.90
46976;DHT22;32724;51.094;6.996;2022-12-10T10:24:07;0.60;99.90
46976;DHT22;32724;51.094;6.996;2022-12-10T10:26:35;0.60;99.90
46976;DHT22;32724;51.094;6.996;2022-12-10T10:29:05;0.60;99.90
46976;DHT22;32724;51.094;6.996;2022-12-10T10:31:32;0.70;99.90
46976;DHT22;32724;51.094;6.996;2022-12-10T10:33:58;0.80;99.90
46976;DHT22;32724;51.094;6.996;2022-12-10T10:36:28;0.80;99.90
46976;DHT22;32724;51.094;6.996;2022-12-10T10:38:54;0.90;99.90
46976;DHT22;32724;51.094;6.996;2022-12-10T10:41:20;0.90;99.90
46976;DHT22;32724;51.094;6.996;2022-12-10T10:43:46;0.90;99.90
46976;DHT22;32724;51.094;6.996;2022-12-10T10:46:14;0.90;99.90
46976;DHT22;32724;51.094;6.996;2022-12-10T10:48:40;0.80;99.90
46976;DHT22;32724;51.094;6.996;2022-12-10T10:58:35;1.00;99.90
46976;DHT22;32724;51.094;6.996;2022-12-10T11:01:06;1.00;99.90
46976;DHT22;32724;51.094;6.996;2022-12-10T11:03:32;1.00;99.90
46976;DHT22;32724;51.094;6.996;2022-12-10T11:05:58;1.10;99.90
46976;DHT22;32724;51.094;6.996;2022-12-10T11:08:25;1.00;99.90
46976;DHT22;32724;51.094;6.996;2022-12-10T11:10:52;1.00;99.90
46976;DHT22;32724;51.094;6.996;2022-12-10T11:13:26;1.10;99.90
46976;DHT22;32724;51.094;6.996;2022-12-10T11:16:09;1.10;99.90
46976;DHT22;32724;51.094;6.996;2022-12-10T11:18:37;1.10;99.90
46976;DHT22;32724;51.094;6.996;2022-12-10T11:21:06;1.20;99.90
46976;DHT22;32724;51.094;6.996;2022-12-10T11:23:37;1.40;99.90
46976;DHT22;32724;51.094;6.996;2022-12-10T11:26:13;1.30;99.90
46976;DHT22;32724;51.094;6.996;2022-12-10T11:33:49;1.00;99.90
46976;DHT22;32724;51.094;6.996;2022-12-10T11:51:45;1.50;99.90
46976;DHT22;32724;51.094;6.996;2022-12-10T11:56:45;1.50;99.90
46976;DHT22;32724;51.094;6.996;2022-12-10T12:05:16;1.40;99.90
46976;DHT22;32724;51.094;6.996;2022-12-10T12:14:57;1.10;99.90
46976;DHT22;32724;51.094;6.996;2022-12-10T12:17:28;1.10;99.90
46976;DHT22;32724;51.094;6.996;2022-12-10T12:19:57;1.10;99.90
46976;DHT22;32724;51.094;6.996;2022-12-10T12:22:34;1.00;99.90
46976;DHT22;32724;51.094;6.996;2022-12-10T12:25:09;1.00;99.90
46976;DHT22;32724;51.094;6.996;2022-12-10T12:28:28;1.10;99.90
46976;DHT22;32724;51.094;6.996;2022-12-10T12:30:27;1.20;99.90
46976;DHT22;32724;51.094;6.996;2022-12-10T12:33:04;1.60;99.90
46976;DHT22;32724;51.094;6.996;2022-12-10T12:38:08;0.70;99.90
46976;DHT22;32724;51.094;6.996;2022-12-10T12:40:41;0.50;99.90
46976;DHT22;32724;51.094;6.996;2022-12-10T12:45:52;0.50;99.90
46976;DHT22;32724;51.094;6.996;2022-12-10T12:53:14;0.40;99.90
46976;DHT22;32724;51.094;6.996;2022-12-10T13:00:50;0.50;99.90
46976;DHT22;32724;51.094;6.996;2022-12-10T13:03:24;0.40;99.90
46976;DHT22;32724;51.094;6.996;2022-12-10T13:05:53;0.30;99.90
46976;DHT22;32724;51.094;6.996;2022-12-10T13:16:33;0.30;99.90
46976;DHT22;32724;51.094;6.996;2022-12-10T13:18:42;0.40;99.90
46976;DHT22;32724;51.094;6.996;2022-12-10T13:23:47;0.80;99.90
46976;DHT22;32724;51.094;6.996;2022-12-10T13:26:23;0.90;99.90
46976;DHT22;32724;51.094;6.996;2022-12-10T13:28:53;1.10;99.90
46976;DHT22;32724;51.094;6.996;2022-12-10T13:31:21;1.20;99.90
46976;DHT22;32724;51.094;6.996;2022-12-10T13:33:48;1.30;99.90
46976;DHT22;32724;51.094;6.996;2022-12-10T13:36:19;1.30;99.90
46976;DHT22;32724;51.094;6.996;2022-12-10T13:41:22;0.80;99.90
46976;DHT22;32724;51.094;6.996;2022-12-10T13:47:42;0.70;99.90
46976;DHT22;32724;51.094;6.996;2022-12-10T13:52:29;0.70;99.90
46976;DHT22;32724;51.094;6.996;2022-12-10T13:57:37;0.80;99.90
46976;DHT22;32724;51.094;6.996;2022-12-10T14:00:08;0.80;99.90
46976;DHT22;32724;51.094;6.996;2022-12-10T14:02:48;0.90;99.90
46976;DHT22;32724;51.094;6.996;2022-12-10T14:07:48;0.70;99.90
46976;DHT22;32724;51.094;6.996;2022-12-10T14:10:16;0.70;99.90
46976;DHT22;32724;51.094;6.996;2022-12-10T14:12:42;0.80;99.90
46976;DHT22;32724;51.094;6.996;2022-12-10T14:15:22;0.90;99.90
46976;DHT22;32724;51.094;6.996;2022-12-10T14:17:50;0.90;99.90
46976;DHT22;32724;51.094;6.996;2022-12-10T14:20:23;1.00;99.90
46976;DHT22;32724;51.094;6.996;2022-12-10T14:22:50;1.10;99.90
46976;DHT22;32724;51.094;6.996;2022-12-10T14:25:17;1.10;99.90
46976;DHT22;32724;51.094;6.996;2022-12-10T14:27:43;1.10;99.90
46976;DHT22;32724;51.094;6.996;2022-12-10T14:32:40;1.20;99.90
46976;DHT22;32724;51.094;6.996;2022-12-10T14:35:16;1.20;99.90
46976;DHT22;32724;51.094;6.996;2022-12-10T14:37:43;0.90;99.90
46976;DHT22;32724;51.094;6.996;2022-12-10T14:40:12;0.80;99.90
46976;DHT22;32724;51.094;6.996;2022-12-10T14:42:42;0.60;99.90
46976;DHT22;32724;51.094;6.996;2022-12-10T14:45:11;0.50;99.90
46976;DHT22;32724;51.094;6.996;2022-12-10T14:47:38;0.50;99.90
46976;DHT22;32724;51.094;6.996;2022-12-10T14:50:06;0.50;99.90
46976;DHT22;32724;51.094;6.996;2022-12-10T14:52:39;0.50;99.90
46976;DHT22;32724;51.094;6.996;2022-12-10T14:55:05;0.40;99.90
46976;DHT22;32724;51.094;6.996;2022-12-10T14:57:35;0.40;99.90
46976;DHT22;32724;51.094;6.996;2022-12-10T15:00:05;0.30;99.90
46976;DHT22;32724;51.094;6.996;2022-12-10T15:02:33;0.20;99.90
46976;DHT22;32724;51.094;6.996;2022-12-10T15:04:59;0.20;99.90
46976;DHT22;32724;51.094;6.996;2022-12-10T15:07:26;0.30;99.90
46976;DHT22;32724;51.094;6.996;2022-12-10T15:09:55;0.30;99.90
46976;DHT22;32724;51.094;6.996;2022-12-10T15:14:57;0.50;99.90
46976;DHT22;32724;51.094;6.996;2022-12-10T15:17:41;0.50;99.90
46976;DHT22;32724;51.094;6.996;2022-12-10T15:20:17;0.60;99.90
46976;DHT22;32724;51.094;6.996;2022-12-10T15:22:44;0.60;99.90
46976;DHT22;32724;51.094;6.996;2022-12-10T15:25:19;0.70;99.90
46976;DHT22;32724;51.094;6.996;2022-12-10T15:27:56;0.80;99.90
46976;DHT22;32724;51.094;6.996;2022-12-10T15:30:23;0.80;99.90
46976;DHT22;32724;51.094;6.996;2022-12-10T15:32:49;0.90;99.90
46976;DHT22;32724;51.094;6.996;2022-12-10T15:35:15;0.70;99.90
46976;DHT22;32724;51.094;6.996;2022-12-10T15:37:40;0.50;99.90
46976;DHT22;32724;51.094;6.996;2022-12-10T15:40:19;0.50;99.90
46976;DHT22;32724;51.094;6.996;2022-12-10T15:42:46;0.40;99.90
46976;DHT22;32724;51.094;6.996;2022-12-10T15:45:25;0.30;99.90
46976;DHT22;32724;51.094;6.996;2022-12-10T15:47:51;0.20;99.90
46976;DHT22;32724;51.094;6.996;2022-12-10T15:50:17;0.20;99.90
46976;DHT22;32724;51.094;6.996;2022-12-10T15:52:42;0.20;99.90
46976;DHT22;32724;51.094;6.996;2022-12-10T15:55:09;0.20;99.90
46976;DHT22;32724;51.094;6.996;2022-12-10T15:57:36;0.30;99.90
46976;DHT22;32724;51.094;6.996;2022-12-10T16:00:10;0.30;99.90
46976;DHT22;32724;51.094;6.996;2022-12-10T16:05:18;0.40;99.90
46976;DHT22;32724;51.094;6.996;2022-12-10T16:07:45;0.40;99.90
46976;DHT22;32724;51.094;6.996;2022-12-10T16:10:11;0.50;99.90
46976;DHT22;32724;51.094;6.996;2022-12-10T16:12:37;0.50;99.90
46976;DHT22;32724;51.094;6.996;2022-12-10T16:15:03;0.60;99.90
46976;DHT22;32724;51.094;6.996;2022-12-10T16:17:29;0.70;99.90
46976;DHT22;32724;51.094;6.996;2022-12-10T16:19:56;0.80;99.90
46976;DHT22;32724;51.094;6.996;2022-12-10T16:22:23;0.80;99.90
46976;DHT22;32724;51.094;6.996;2022-12-10T16:24:48;0.90;99.90
46976;DHT22;32724;51.094;6.996;2022-12-10T16:27:14;0.80;99.90
46976;DHT22;32724;51.094;6.996;2022-12-10T16:29:40;0.80;99.90
46976;DHT22;32724;51.094;6.996;2022-12-10T16:32:08;0.80;99.90
46976;DHT22;32724;51.094;6.996;2022-12-10T16:34:34;0.60;99.90
46976;DHT22;32724;51.094;6.996;2022-12-10T16:36:59;0.60;99.90
46976;DHT22;32724;51.094;6.996;2022-12-10T16:39:24;0.50;99.90
46976;DHT22;32724;51.094;6.996;2022-12-10T16:41:53;0.50;99.90
46976;DHT22;32724;51.094;6.996;2022-12-10T16:44:18;0.50;99.90
46976;DHT22;32724;51.094;6.996;2022-12-10T16:46:44;0.50;99.90
46976;DHT22;32724;51.094;6.996;2022-12-10T16:49:09;0.50;99.90
46976;DHT22;32724;51.094;6.996;2022-12-10T16:51:35;0.60;99.90
46976;DHT22;32724;51.094;6.996;2022-12-10T16:54:01;0.60;99.90
46976;DHT22;32724;51.094;6.996;2022-12-10T16:56:27;0.60;99.90
46976;DHT22;32724;51.094;6.996;2022-12-10T16:58:53;0.60;99.90
46976;DHT22;32724;51.094;6.996;2022-12-10T17:01:20;1.10;99.90
46976;DHT22;32724;51.094;6.996;2022-12-10T17:03:46;0.90;99.90
46976;DHT22;32724;51.094;6.996;2022-12-10T17:06:12;0.80;99.90
46976;DHT22;32724;51.094;6.996;2022-12-10T17:08:38;0.70;99.90
46976;DHT22;32724;51.094;6.996;2022-12-10T17:14:21;0.50;99.90
46976;DHT22;32724;51.094;6.996;2022-12-10T17:16:47;0.50;99.90
46976;DHT22;32724;51.094;6.996;2022-12-10T17:19:13;0.50;99.90
46976;DHT22;32724;51.094;6.996;2022-12-10T17:21:38;0.50;99.90
46976;DHT22;32724;51.094;6.996;2022-12-10T17:24:04;0.50;99.90
46976;DHT22;32724;51.094;6.996;2022-12-10T17:26:30;0.50;99.90
46976;DHT22;32724;51.094;6.996;2022-12-10T17:29:00;0.40;99.90